Time;durP1;ratioP1;P1;durP2;ratioP2;P2;SDS_P1;SDS_P2;PMS_P1;PMS_P2;Temp;Humidity;BMP_temperature;BMP_pressure;BME280_temperature;BME280_humidity;BME280_pressure;Samples;Min_cycle;Max_cycle;Signal;HPM_P1;HPM_P2
2023/05/11 00:04:28;;;;;;;8.53;6.73;;;;;;;8.02;100.00;96306.72;10417839;28;20189;-64
2023/05/11 00:09:28;;;;;;;10.03;6.53;;;;;;;8.12;100.00;96309.28;10417266;28;20278;-64
2023/05/11 00:14:28;;;;;;;12.90;7.00;;;;;;;8.23;100.00;96298.59;10417384;28;20204;-63
2023/05/11 00:19:30;;;;;;;11.97;7.60;;;;;;;8.20;100.00;96299.69;10416752;28;20228;-64
2023/05/11 00:24:30;;;;;;;10.30;7.33;;;;;;;8.25;100.00;96291.41;10416626;28;20271;-64
2023/05/11 00:29:31;;;;;;;10.00;7.40;;;;;;;8.21;100.00;96293.53;10416715;28;20300;-63
2023/05/11 00:34:31;;;;;;;10.53;7.83;;;;;;;8.16;100.00;96284.50;10416285;28;20208;-63
2023/05/11 00:39:37;;;;;;;10.03;6.77;;;;;;;8.19;100.00;96281.59;10449101;28;20286;-64
2023/05/11 00:44:37;;;;;;;8.57;7.07;;;;;;;8.34;100.00;96279.25;10457223;28;20563;-63
2023/05/11 00:49:38;;;;;;;11.40;7.13;;;;;;;8.56;100.00;96276.16;10457093;28;20234;-63
2023/05/11 00:54:39;;;;;;;10.80;7.20;;;;;;;8.63;100.00;96273.75;10455810;28;20192;-63
2023/05/11 00:59:40;;;;;;;11.93;7.83;;;;;;;8.79;100.00;96277.41;10438361;28;20251;-62
2023/05/11 01:04:40;;;;;;;14.33;6.67;;;;;;;8.78;100.00;96276.59;10456223;28;20196;-63
2023/05/11 01:09:48;;;;;;;10.10;7.67;;;;;;;8.84;100.00;96265.53;10455843;28;20710;-63
2023/05/11 01:15:11;;;;;;;19.67;8.50;;;;;;;8.92;100.00;96267.34;10454742;28;20233;-62
2023/05/11 01:20:20;;;;;;;15.60;9.27;;;;;;;8.91;100.00;96260.47;10454591;28;20251;-62
2023/05/11 01:25:46;;;;;;;10.87;6.93;;;;;;;8.87;100.00;96269.63;10437652;28;20191;-63
2023/05/11 01:31:12;;;;;;;8.13;6.70;;;;;;;8.98;100.00;96268.53;10453810;28;20208;-62
2023/05/11 01:36:13;;;;;;;11.17;7.57;;;;;;;8.91;100.00;96261.31;10455521;28;20617;-62
2023/05/11 01:41:15;;;;;;;13.33;7.90;;;;;;;8.91;100.00;96260.47;10453325;28;20235;-63
2023/05/11 01:46:16;;;;;;;11.73;7.93;;;;;;;8.85;100.00;96267.16;10453666;28;20662;-62
2023/05/11 01:51:17;;;;;;;9.97;7.97;;;;;;;8.72;100.00;96272.00;10435792;28;20306;-62
2023/05/11 01:56:20;;;;;;;11.47;8.20;;;;;;;8.53;100.00;96263.41;10453264;28;20216;-62
2023/05/11 02:01:21;;;;;;;12.10;8.40;;;;;;;8.21;100.00;96269.22;10436324;28;20236;-62
2023/05/11 02:06:23;;;;;;;14.07;9.07;;;;;;;8.09;100.00;96271.25;10436317;28;20257;-62
2023/05/11 02:11:25;;;;;;;12.47;9.77;;;;;;;7.86;100.00;96276.13;10436123;28;20204;-62
2023/05/11 02:16:27;;;;;;;18.63;10.50;;;;;;;7.54;100.00;96281.88;10435906;28;20188;-63
2023/05/11 02:21:28;;;;;;;17.47;10.70;;;;;;;7.38;100.00;96288.56;10452118;28;20261;-61
2023/05/11 02:26:29;;;;;;;27.57;17.33;;;;;;;7.58;100.00;96296.22;10453434;28;20215;-61
2023/05/11 02:31:31;;;;;;;12.00;8.57;;;;;;;7.68;100.00;96297.00;10435095;28;20636;-64
2023/05/11 02:36:33;;;;;;;9.47;7.47;;;;;;;7.78;100.00;96286.47;10435665;28;20200;-62
2023/05/11 02:41:38;;;;;;;11.40;7.67;;;;;;;7.88;100.00;96289.03;10434852;28;20571;-62
2023/05/11 02:46:39;;;;;;;10.47;7.57;;;;;;;7.96;100.00;96283.84;10446711;28;20607;-63
2023/05/11 02:51:42;;;;;;;9.13;7.30;;;;;;;7.98;100.00;96282.75;10370872;28;20256;-63
2023/05/11 02:56:43;;;;;;;9.07;6.43;;;;;;;8.01;100.00;96282.44;10369292;28;20759;-63
2023/05/11 03:01:44;;;;;;;9.80;7.23;;;;;;;8.00;100.00;96275.59;10352426;28;20224;-62
2023/05/11 03:06:45;;;;;;;43.10;22.40;;;;;;;7.96;100.00;96276.03;10393129;28;20188;-62
2023/05/11 03:11:46;;;;;;;30.37;14.43;;;;;;;8.04;100.00;96274.31;10409694;28;20212;-63
2023/05/11 03:16:47;;;;;;;11.00;7.00;;;;;;;8.10;100.00;96274.66;10393338;28;20188;-63
2023/05/11 03:21:50;;;;;;;11.07;7.50;;;;;;;7.92;100.00;96285.16;10409319;28;20212;-62
2023/05/11 03:26:53;;;;;;;6.53;5.80;;;;;;;7.98;100.00;96274.13;10393071;28;20192;-62
2023/05/11 03:31:54;;;;;;;9.13;6.00;;;;;;;8.19;100.00;96281.59;10410653;28;20211;-63
2023/05/11 03:36:56;;;;;;;10.03;5.77;;;;;;;8.16;100.00;96271.47;10409240;28;20200;-62
2023/05/11 03:41:58;;;;;;;6.73;5.97;;;;;;;8.28;100.00;96270.22;10409125;28;20281;-62
2023/05/11 03:47:00;;;;;;;7.90;5.60;;;;;;;8.45;100.00;96270.38;10409120;28;20272;-63
2023/05/11 03:52:01;;;;;;;12.57;5.87;;;;;;;8.52;100.00;96271.41;10408983;28;20287;-63
2023/05/11 03:57:02;;;;;;;7.07;5.80;;;;;;;8.31;100.00;96272.53;10409188;28;20191;-63
2023/05/11 04:02:02;;;;;;;9.03;6.40;;;;;;;8.13;100.00;96272.59;10409668;28;20307;-62
2023/05/11 04:07:02;;;;;;;8.77;5.73;;;;;;;8.13;100.00;96276.97;10392487;28;20193;-63
2023/05/11 04:12:03;;;;;;;7.27;5.67;;;;;;;8.28;100.00;96277.25;10411158;28;20291;-62
2023/05/11 04:17:04;;;;;;;8.27;6.33;;;;;;;8.33;100.00;96272.38;10415993;28;20188;-62
2023/05/11 04:22:04;;;;;;;6.83;6.13;;;;;;;8.53;100.00;96280.84;10416837;28;20271;-62
2023/05/11 04:27:04;;;;;;;13.20;6.17;;;;;;;8.57;100.00;96272.59;10416861;28;20189;-62
2023/05/11 04:32:05;;;;;;;6.77;5.17;;;;;;;8.90;100.00;96272.72;10415299;28;20214;-63
2023/05/11 04:37:06;;;;;;;10.37;6.13;;;;;;;9.13;100.00;96268.72;10415007;28;20196;-62
2023/05/11 04:42:07;;;;;;;11.90;6.20;;;;;;;9.28;100.00;96264.56;10414670;28;20240;-64
2023/05/11 04:47:08;;;;;;;11.67;6.37;;;;;;;9.63;100.00;96260.00;10414640;28;20679;-63
2023/05/11 04:52:08;;;;;;;7.53;6.17;;;;;;;9.79;100.00;96264.47;10415839;28;20219;-62
2023/05/11 04:57:09;;;;;;;8.03;6.03;;;;;;;9.93;100.00;96258.56;10414336;28;20188;-64
2023/05/11 05:02:09;;;;;;;12.77;7.53;;;;;;;10.05;100.00;96258.25;10415493;28;20300;-64
2023/05/11 05:07:10;;;;;;;7.63;6.80;;;;;;;10.46;100.00;96251.19;10414209;28;20615;-64
2023/05/11 05:12:10;;;;;;;15.53;8.43;;;;;;;10.85;100.00;96245.16;10413667;28;20227;-63
2023/05/11 05:17:10;;;;;;;9.05;6.18;;;;;;;11.48;100.00;96239.13;10413701;28;20746;-64
2023/05/11 05:22:11;;;;;;;6.13;3.47;;;;;;;12.00;96.58;96182.50;10412923;28;20230;-64
2023/05/11 05:27:12;;;;;;;4.60;3.15;;;;;;;12.32;89.88;96181.38;10414699;28;20201;-63
2023/05/11 05:32:12;;;;;;;3.30;3.00;;;;;;;12.51;87.13;96177.41;10412885;28;20231;-63
2023/05/11 05:37:13;;;;;;;3.50;2.80;;;;;;;12.76;85.67;96183.16;10411314;28;20239;-64
2023/05/11 05:42:13;;;;;;;5.35;3.15;;;;;;;13.04;83.05;96171.97;10431940;23;20247;-64
2023/05/11 05:47:14;;;;;;;3.40;2.95;;;;;;;13.33;84.76;96196.56;10412629;28;20238;-65
2023/05/11 05:52:15;;;;;;;3.80;2.85;;;;;;;13.33;79.27;96154.47;10409513;28;20271;-66
2023/05/11 05:57:15;;;;;;;4.20;2.63;;;;;;;13.88;79.90;96171.38;10389112;28;20201;-67
2023/05/11 06:02:17;;;;;;;4.95;3.03;;;;;;;13.91;76.42;96142.03;10371106;28;20722;-66
2023/05/11 06:07:18;;;;;;;4.85;2.65;;;;;;;14.09;75.07;96146.81;10370869;28;20224;-65
2023/05/11 06:12:18;;;;;;;4.18;3.08;;;;;;;14.46;74.40;96146.63;10371805;28;20209;-66
2023/05/11 06:17:21;;;;;;;3.35;2.67;;;;;;;14.56;70.74;96118.09;10379185;28;20205;-66
2023/05/11 06:22:22;;;;;;;4.80;2.60;;;;;;;15.09;70.74;96128.03;10371403;28;20631;-67
2023/05/11 06:27:22;;;;;;;4.65;2.80;;;;;;;15.34;69.71;96130.94;10371592;28;20668;-66
2023/05/11 06:32:26;;;;;;;5.40;2.60;;;;;;;14.74;70.51;96138.66;10386308;28;20198;-66
2023/05/11 06:37:30;;;;;;;4.88;2.83;;;;;;;14.77;71.50;96151.44;10385744;28;20197;-65
2023/05/11 06:42:31;;;;;;;3.25;2.55;;;;;;;15.65;68.71;96131.34;10385784;28;20288;-65
2023/05/11 06:47:40;;;;;;;4.07;2.15;;;;;;;14.62;70.72;96148.97;10385960;28;20216;-66
2023/05/11 06:52:41;;;;;;;6.70;3.00;;;;;;;15.14;71.81;96177.56;10370638;28;20210;-65
2023/05/11 06:57:41;;;;;;;3.60;3.03;;;;;;;15.51;69.31;96138.44;10370594;28;20221;-64
2023/05/11 07:02:41;;;;;;;6.00;2.78;;;;;;;16.64;67.49;96134.88;10379386;28;20228;-66
2023/05/11 07:07:42;;;;;;;2.90;2.60;;;;;;;16.34;66.32;96110.75;10386875;28;20188;-65
2023/05/11 07:12:42;;;;;;;4.68;2.45;;;;;;;16.23;66.52;96115.69;10390214;28;20294;-66
2023/05/11 07:18:07;;;;;;;3.70;2.72;;;;;;;16.40;67.79;96155.72;10396843;28;20188;-67
2023/05/11 07:23:16;;;;;;;3.00;2.10;;;;;;;16.67;65.13;96117.78;10416445;28;20228;-67
2023/05/11 07:28:29;;;;;;;2.67;2.25;;;;;;;17.28;64.68;96132.38;10407894;28;20229;-66
2023/05/11 07:33:29;;;;;;;4.47;2.78;;;;;;;17.28;64.81;96135.81;10389918;28;20188;-66
2023/05/11 07:38:29;;;;;;;2.83;2.55;;;;;;;17.63;60.15;96071.81;10391875;28;20232;-65
2023/05/11 07:43:30;;;;;;;4.93;2.47;;;;;;;16.90;60.92;96082.91;10397313;28;20208;-66
2023/05/11 07:48:30;;;;;;;4.78;3.60;;;;;;;16.30;62.60;96102.44;10414333;28;20243;-67
2023/05/11 07:53:31;;;;;;;5.78;2.85;;;;;;;17.56;61.34;96115.28;10413264;28;20180;-67
2023/05/11 07:58:32;;;;;;;6.45;2.58;;;;;;;18.87;56.87;96060.31;10394365;28;20627;-68
2023/05/11 08:03:32;;;;;;;2.50;2.08;;;;;;;20.05;54.29;96058.91;10404630;28;20298;-68
2023/05/11 08:08:32;;;;;;;3.78;2.22;;;;;;;18.82;54.55;96038.09;10415204;28;20228;-67
2023/05/11 08:13:33;;;;;;;3.60;2.45;;;;;;;17.64;55.77;96036.38;10416148;28;20193;-67
2023/05/11 08:18:33;;;;;;;3.78;2.40;;;;;;;17.90;55.01;96028.41;10415690;28;20223;-67
2023/05/11 08:23:34;;;;;;;3.90;2.67;;;;;;;17.33;56.43;96063.69;10425309;28;20595;-68
2023/05/11 08:28:34;;;;;;;3.10;2.35;;;;;;;17.57;56.00;96066.59;10415488;28;20242;-65
2023/05/11 08:33:34;;;;;;;4.43;2.80;;;;;;;16.94;57.27;96069.06;10415644;28;20185;-67
2023/05/11 08:38:35;;;;;;;2.13;1.92;;;;;;;17.31;55.84;96054.38;10423550;28;20297;-68
2023/05/11 08:43:37;;;;;;;3.75;2.00;;;;;;;17.32;57.22;96099.16;10455333;28;20599;-67
2023/05/11 08:48:37;;;;;;;5.90;2.47;;;;;;;17.54;55.68;96069.66;10455714;28;20208;-67
2023/05/11 08:53:38;;;;;;;3.00;2.20;;;;;;;17.34;55.99;96067.97;10454704;28;20187;-67
2023/05/11 08:58:39;;;;;;;3.83;2.42;;;;;;;17.42;55.81;96078.28;10455029;28;20220;-68
2023/05/11 09:03:40;;;;;;;4.65;2.67;;;;;;;17.02;56.71;96075.13;10455073;28;20296;-66
2023/05/11 09:08:40;;;;;;;3.30;2.30;;;;;;;17.79;55.89;96082.88;10453819;28;20265;-67
2023/05/11 09:13:41;;;;;;;4.45;2.30;;;;;;;18.30;55.38;96095.06;10453553;28;20195;-67
2023/05/11 09:24:10;;;;;;;6.50;2.92;;;;;;;17.62;54.75;96064.09;10330463;28;20214;-64
2023/05/11 09:29:10;;;;;;;5.55;2.55;;;;;;;18.94;53.47;96062.06;10342925;28;20204;-67
2023/05/11 09:34:12;;;;;;;9.10;3.25;;;;;;;18.02;54.94;96077.00;10371594;28;20631;-67
2023/05/11 09:39:13;;;;;;;4.85;2.80;;;;;;;18.21;52.53;96027.47;10371933;28;20587;-68
2023/05/11 09:44:14;;;;;;;4.93;3.05;;;;;;;18.46;53.17;96053.88;10370592;28;20197;-67
2023/05/11 09:49:15;;;;;;;4.63;2.38;;;;;;;18.87;51.80;96041.75;10397097;28;20684;-67
2023/05/11 09:54:17;;;;;;;3.20;2.58;;;;;;;19.57;50.71;96034.97;10412206;28;20194;-68
2023/05/11 09:59:36;;;;;;;3.28;2.92;;;;;;;18.99;51.34;96060.38;10411451;28;20267;-68
2023/05/11 10:04:36;;;;;;;3.78;2.42;;;;;;;18.94;49.97;96011.66;10402751;28;20739;-68
2023/05/11 10:09:37;;;;;;;2.60;1.95;;;;;;;18.70;50.11;96004.41;10352233;28;20215;-68
2023/05/11 10:14:37;;;;;;;3.55;2.47;;;;;;;18.45;49.15;95980.66;10370228;28;20197;-68
2023/05/11 10:19:38;;;;;;;3.25;2.00;;;;;;;18.31;52.83;96058.75;10368766;28;20237;-68
2023/05/11 10:24:38;;;;;;;6.78;2.30;;;;;;;18.08;51.07;96012.50;10370064;28;20197;-67
2023/05/11 10:29:39;;;;;;;5.45;2.50;;;;;;;18.52;51.61;96045.03;10369594;28;20232;-68
2023/05/11 10:34:40;;;;;;;2.95;2.35;;;;;;;19.22;51.22;96056.97;10369875;28;20193;-68
2023/05/11 10:39:43;;;;;;;6.88;2.88;;;;;;;19.65;50.36;96047.09;10369421;28;20356;-68
2023/05/11 10:45:16;;;;;;;7.75;2.80;;;;;;;18.64;50.32;96015.09;10369192;28;20205;-68
2023/05/11 10:50:32;;;;;;;4.60;2.90;;;;;;;18.18;53.80;96087.03;10343996;28;20570;-68
2023/05/11 10:55:41;;;;;;;4.57;2.67;;;;;;;18.77;50.88;96038.00;10369521;28;20227;-68
2023/05/11 11:00:57;;;;;;;5.20;2.53;;;;;;;19.54;50.31;96046.06;10369051;28;20226;-69
2023/05/11 11:05:58;;;;;;;3.33;2.40;;;;;;;20.11;48.31;96007.47;10369030;28;20275;-70
2023/05/11 11:10:58;;;;;;;8.77;3.78;;;;;;;18.85;50.24;96025.25;10368840;28;20288;-69
2023/05/11 11:16:01;;;;;;;4.10;2.85;;;;;;;19.52;49.25;96010.13;10361877;28;20197;-70
2023/05/11 11:21:03;;;;;;;3.30;3.00;;;;;;;19.02;50.52;96043.16;10352285;28;20256;-69
2023/05/11 11:26:03;;;;;;;11.88;2.95;;;;;;;19.40;49.53;96029.53;10350847;28;20196;-69
2023/05/11 11:31:31;;;;;;;7.30;3.35;;;;;;;18.43;51.42;96061.47;10335923;28;20630;-69
2023/05/11 11:37:07;;;;;;;4.40;2.85;;;;;;;18.69;50.55;96049.72;10336535;28;20655;-69
2023/05/11 11:42:10;;;;;;;5.90;2.58;;;;;;;20.08;49.52;96055.78;10368569;23;20799;-67
2023/05/11 11:47:15;;;;;;;4.85;2.53;;;;;;;20.70;48.92;96063.19;10417031;28;20188;-66
2023/05/11 11:52:30;;;;;;;2.30;2.10;;;;;;;19.60;48.62;96039.81;10415558;28;20243;-67
2023/05/11 11:57:33;;;;;;;4.80;2.40;;;;;;;19.65;49.01;96056.91;10417169;28;20195;-67
2023/05/11 12:02:33;;;;;;;3.30;2.13;;;;;;;17.94;52.53;96082.59;10416448;28;20228;-66
2023/05/11 12:07:35;;;;;;;5.25;2.30;;;;;;;17.99;53.46;96106.59;10416867;28;20204;-66
2023/05/11 12:12:36;;;;;;;4.75;2.35;;;;;;;17.46;52.31;96081.34;10415342;28;20208;-66
2023/05/11 12:17:37;;;;;;;3.80;2.33;;;;;;;17.33;52.16;96063.69;10416283;28;20193;-65
2023/05/11 12:22:38;;;;;;;4.95;2.50;;;;;;;17.18;52.17;96057.91;10403473;28;20221;-66
2023/05/11 12:28:00;;;;;;;3.53;1.85;;;;;;;17.25;51.67;96056.03;10390737;28;20203;-65
2023/05/11 12:33:03;;;;;;;3.53;2.55;;;;;;;17.31;50.45;96031.34;10390963;28;20208;-65
2023/05/11 12:38:03;;;;;;;5.00;2.25;;;;;;;17.52;50.92;96046.06;10393324;28;20189;-65
2023/05/11 12:43:03;;;;;;;2.55;2.10;;;;;;;17.62;50.58;96048.19;10393864;28;20303;-65
2023/05/11 12:48:04;;;;;;;4.45;2.83;;;;;;;17.86;52.13;96088.16;10392234;28;20193;-66
2023/05/11 12:53:25;;;;;;;4.07;2.30;;;;;;;17.28;50.28;96037.88;10391670;28;20227;-65
2023/05/11 12:58:25;;;;;;;4.15;2.20;;;;;;;17.08;50.24;96014.19;10396648;28;20202;-66
2023/05/11 13:03:27;;;;;;;2.58;2.17;;;;;;;17.52;50.34;96034.63;10414039;28;20227;-65
2023/05/11 13:08:28;;;;;;;2.33;2.10;;;;;;;17.93;49.64;96031.44;10414525;28;20200;-66
2023/05/11 13:13:28;;;;;;;2.30;1.73;;;;;;;18.28;47.62;95996.34;10413270;28;20184;-66
2023/05/11 13:18:28;;;;;;;2.95;1.35;;;;;;;17.74;47.92;95976.78;10399636;28;20189;-66
2023/05/11 13:23:30;;;;;;;5.97;2.15;;;;;;;19.60;45.24;95975.22;10375798;28;20725;-66
2023/05/11 13:28:32;;;;;;;2.33;1.80;;;;;;;19.16;45.55;95961.50;10383358;28;20200;-68
2023/05/11 13:33:33;;;;;;;2.42;1.70;;;;;;;20.52;43.07;95967.53;10413709;28;20659;-67
2023/05/11 13:38:33;;;;;;;4.72;2.00;;;;;;;18.63;45.24;95950.59;10411093;28;20196;-67
2023/05/11 13:43:34;;;;;;;3.83;2.30;;;;;;;18.62;45.35;95948.19;10412836;28;20594;-67
2023/05/11 13:48:34;;;;;;;13.90;4.63;;;;;;;18.42;46.40;95974.97;10412495;28;20246;-67
2023/05/11 13:53:35;;;;;;;4.63;2.00;;;;;;;18.52;46.57;95980.56;10411895;28;20193;-67
2023/05/11 13:58:35;;;;;;;4.32;2.03;;;;;;;18.24;46.29;95968.69;10411127;28;20228;-67
2023/05/11 14:03:36;;;;;;;2.15;1.70;;;;;;;18.74;45.29;95970.25;10410379;28;20578;-67
2023/05/11 14:08:36;;;;;;;9.00;2.00;;;;;;;18.53;45.47;95966.28;10412258;28;20216;-67
2023/05/11 14:13:36;;;;;;;2.13;1.80;;;;;;;18.15;45.51;95951.47;10411149;28;20246;-67
2023/05/11 14:18:37;;;;;;;2.90;1.63;;;;;;;18.17;45.31;95947.53;10410796;28;20251;-66
2023/05/11 14:23:37;;;;;;;6.20;2.60;;;;;;;17.94;45.15;95931.53;10411108;28;20228;-66
2023/05/11 14:28:38;;;;;;;3.13;1.80;;;;;;;17.97;46.36;95976.16;10410721;28;20279;-66
2023/05/11 14:33:39;;;;;;;4.55;1.70;;;;;;;17.72;46.52;95960.28;10409811;28;20207;-66
2023/05/11 14:38:39;;;;;;;2.45;1.65;;;;;;;17.91;45.46;95948.69;10410415;28;20670;-66
2023/05/11 14:43:40;;;;;;;1.73;1.60;;;;;;;18.07;47.63;95994.16;10410293;28;20248;-66
2023/05/11 14:48:40;;;;;;;3.53;1.95;;;;;;;17.83;43.90;95904.72;10410440;28;20224;-66
2023/05/11 14:53:41;;;;;;;2.00;1.80;;;;;;;17.04;45.73;95912.44;10398269;28;20191;-66
2023/05/11 14:58:41;;;;;;;4.93;1.60;;;;;;;17.26;44.83;95901.47;10392247;28;20652;-66
2023/05/11 15:03:42;;;;;;;7.57;1.58;;;;;;;18.30;44.85;95951.06;10407905;28;20628;-67
2023/05/11 15:08:42;;;;;;;2.03;1.70;;;;;;;18.85;43.04;95928.88;10408029;28;20223;-67
2023/05/11 15:13:43;;;;;;;2.63;1.80;;;;;;;17.96;43.99;95924.16;10410017;28;20251;-66
2023/05/11 15:18:43;;;;;;;2.60;1.60;;;;;;;17.60;45.29;95936.38;10410205;28;20243;-66
2023/05/11 15:23:43;;;;;;;2.25;1.80;;;;;;;17.50;45.43;95950.09;10409952;28;20212;-66
2023/05/11 15:28:44;;;;;;;2.67;1.52;;;;;;;17.71;44.53;95932.19;10409143;28;20289;-66
2023/05/11 15:33:44;;;;;;;4.13;1.70;;;;;;;18.29;44.69;95957.41;10449016;28;20191;-66
2023/05/11 15:38:45;;;;;;;3.90;1.65;;;;;;;17.79;44.00;95931.88;10391676;28;20602;-66
2023/05/11 15:43:45;;;;;;;4.28;1.98;;;;;;;17.58;43.67;95915.41;10386792;28;20216;-66
2023/05/11 15:48:45;;;;;;;1.90;1.40;;;;;;;17.53;43.53;95909.94;10390111;28;20287;-66
2023/05/11 15:53:46;;;;;;;5.95;1.70;;;;;;;17.39;44.13;95927.81;10385935;28;20292;-66
2023/05/11 15:58:46;;;;;;;2.97;1.77;;;;;;;17.37;43.84;95921.94;10385356;28;20228;-66
2023/05/11 16:03:46;;;;;;;3.65;1.52;;;;;;;17.49;46.50;95998.81;10386920;28;20289;-66
2023/05/11 16:08:47;;;;;;;5.25;1.90;;;;;;;17.48;45.54;95984.75;10390777;28;20247;-66
2023/05/11 16:13:47;;;;;;;2.78;1.70;;;;;;;17.03;46.39;95990.22;10396279;28;20186;-66
2023/05/11 16:18:47;;;;;;;3.83;1.55;;;;;;;16.90;45.95;95971.78;10380806;28;20235;-65
2023/05/11 16:23:48;;;;;;;2.58;1.73;;;;;;;16.88;46.54;95987.09;10379765;28;20220;-65
2023/05/11 16:28:48;;;;;;;3.22;1.85;;;;;;;16.76;45.73;95968.41;10386844;28;20312;-65
2023/05/11 16:33:49;;;;;;;6.75;1.63;;;;;;;16.63;46.58;95989.63;10377342;28;20193;-65
2023/05/11 16:38:49;;;;;;;2.20;1.70;;;;;;;16.83;46.52;95981.56;10375747;28;20237;-65
2023/05/11 16:43:50;;;;;;;4.03;1.90;;;;;;;16.83;46.31;95976.28;10374895;28;20639;-66
2023/05/11 16:48:50;;;;;;;1.83;1.48;;;;;;;16.80;46.17;95982.84;10374245;28;20237;-64
2023/05/11 16:53:50;;;;;;;5.35;1.85;;;;;;;16.76;46.40;95987.72;10374561;28;20198;-65
2023/05/11 16:58:51;;;;;;;3.92;1.88;;;;;;;16.43;47.42;96003.78;10374331;28;20229;-65
2023/05/11 17:03:51;;;;;;;5.25;1.90;;;;;;;16.82;48.59;96059.34;10374089;28;20233;-65
2023/05/11 17:08:52;;;;;;;4.05;1.95;;;;;;;16.45;47.58;96022.91;10373874;28;20300;-65
2023/05/11 17:13:53;;;;;;;5.28;1.77;;;;;;;16.30;48.13;96022.34;10373796;28;20185;-65
2023/05/11 17:18:53;;;;;;;2.08;1.88;;;;;;;16.41;48.57;96043.63;10372003;28;20217;-66
2023/05/11 17:23:53;;;;;;;4.85;2.50;;;;;;;16.37;48.48;96039.81;10380723;28;20772;-66
2023/05/11 17:28:54;;;;;;;5.10;2.08;;;;;;;16.17;49.29;96058.38;10373370;28;20300;-66
2023/05/11 17:33:54;;;;;;;2.03;1.80;;;;;;;15.98;48.88;96046.03;10369661;28;20269;-66
2023/05/11 17:38:55;;;;;;;2.63;1.92;;;;;;;15.93;51.22;96101.31;10396320;23;20255;-67
2023/05/11 17:43:55;;;;;;;3.15;1.75;;;;;;;16.03;49.63;96065.53;10394550;28;20240;-65
2023/05/11 17:48:56;;;;;;;3.33;2.30;;;;;;;16.09;50.73;96100.88;10391274;28;20357;-66
2023/05/11 17:53:56;;;;;;;3.00;1.90;;;;;;;15.97;50.77;96105.16;10398796;28;20188;-65
2023/05/11 17:58:56;;;;;;;3.08;2.28;;;;;;;15.77;50.57;96102.50;10411637;28;20243;-66
2023/05/11 18:03:57;;;;;;;6.78;2.38;;;;;;;15.63;51.98;96133.38;10402654;28;20208;-65
2023/05/11 18:08:58;;;;;;;2.75;2.13;;;;;;;15.54;51.93;96142.53;10396361;28;20275;-65
2023/05/11 18:13:58;;;;;;;2.60;2.10;;;;;;;15.57;53.19;96171.97;10411029;28;20997;-65
2023/05/11 18:18:59;;;;;;;3.30;2.00;;;;;;;15.60;53.43;96170.75;10395623;28;20189;-65
2023/05/11 18:23:59;;;;;;;3.78;2.22;;;;;;;15.52;54.27;96200.81;10398793;28;20687;-65
2023/05/11 18:29:00;;;;;;;2.22;1.95;;;;;;;15.37;54.51;96208.06;10410736;28;20184;-65
2023/05/11 18:34:02;;;;;;;6.00;2.03;;;;;;;15.39;54.61;96221.88;10410375;28;20196;-67
2023/05/11 18:39:03;;;;;;;2.97;2.08;;;;;;;15.28;55.08;96220.63;10410058;28;20201;-66
2023/05/11 18:44:04;;;;;;;5.18;2.20;;;;;;;15.24;54.02;96204.38;10410168;28;20243;-65
2023/05/11 18:49:04;;;;;;;3.53;2.05;;;;;;;15.11;54.38;96215.69;10409779;28;20207;-66
2023/05/11 18:54:05;;;;;;;2.00;1.80;;;;;;;15.03;56.37;96254.66;10404032;28;20190;-66
2023/05/11 18:59:05;;;;;;;4.25;2.20;;;;;;;14.98;55.96;96245.47;10385206;28;20295;-66
2023/05/11 19:04:07;;;;;;;4.13;2.30;;;;;;;14.73;59.50;96312.88;10388861;28;20308;-66
2023/05/11 19:09:08;;;;;;;2.45;2.03;;;;;;;14.69;58.33;96295.84;10369321;28;20303;-65
2023/05/11 19:14:09;;;;;;;2.90;2.05;;;;;;;14.43;60.24;96323.59;10368253;28;20201;-65
2023/05/11 19:19:10;;;;;;;4.18;2.20;;;;;;;14.28;61.92;96353.44;10368659;28;20208;-65
2023/05/11 19:24:10;;;;;;;5.70;2.42;;;;;;;14.34;61.69;96361.63;10368193;28;20544;-66
2023/05/11 19:29:15;;;;;;;5.80;2.55;;;;;;;14.18;62.04;96352.97;10368589;28;20220;-65
2023/05/11 19:34:15;;;;;;;5.05;3.28;;;;;;;14.00;62.73;96373.66;10368594;28;20188;-65
2023/05/11 19:39:16;;;;;;;3.88;2.20;;;;;;;14.00;64.71;96413.16;10367748;28;20723;-65
2023/05/11 19:44:16;;;;;;;4.30;2.45;;;;;;;13.74;66.45;96435.53;10374445;28;20316;-67
2023/05/11 19:49:17;;;;;;;4.90;2.90;;;;;;;13.39;67.93;96440.53;10375653;28;20243;-64
2023/05/11 19:54:17;;;;;;;3.17;2.72;;;;;;;13.01;71.22;96477.34;10376887;28;20189;-66
2023/05/11 19:59:18;;;;;;;4.63;2.90;;;;;;;12.77;73.33;96494.13;10376287;28;20216;-65
2023/05/11 20:04:18;;;;;;;6.82;3.00;;;;;;;12.10;75.71;96487.66;10376071;28;20307;-66
2023/05/11 20:09:19;;;;;;;4.78;3.10;;;;;;;12.04;77.12;96481.28;10376244;28;20201;-64
2023/05/11 20:14:19;;;;;;;5.13;2.70;;;;;;;11.80;77.54;96474.28;10375599;28;20204;-65
2023/05/11 20:19:19;;;;;;;5.97;3.38;;;;;;;11.59;78.45;96465.19;10375771;28;20213;-66
2023/05/11 20:24:20;;;;;;;5.50;3.28;;;;;;;11.41;79.82;96462.75;10440846;28;20698;-65
2023/05/11 20:29:20;;;;;;;7.10;3.83;;;;;;;11.19;80.14;96460.84;10457383;28;20677;-65
2023/05/11 20:34:20;;;;;;;4.75;3.28;;;;;;;11.15;81.12;96462.16;10457158;28;20689;-64
2023/05/11 20:39:21;;;;;;;4.53;3.40;;;;;;;10.98;83.18;96479.69;10456556;28;20602;-65
2023/05/11 20:44:22;;;;;;;3.90;3.50;;;;;;;10.48;86.20;96486.72;10457093;28;20688;-64
2023/05/11 20:49:23;;;;;;;4.73;3.40;;;;;;;10.58;87.46;96474.31;10456611;28;20294;-64
2023/05/11 20:54:23;;;;;;;8.33;3.57;;;;;;;10.51;88.09;96473.31;10456039;28;20238;-64
2023/05/11 20:59:23;;;;;;;3.85;3.22;;;;;;;10.49;88.96;96468.22;10456238;28;20219;-64
2023/05/11 21:04:24;;;;;;;6.27;3.60;;;;;;;10.50;88.36;96476.91;10456054;28;20640;-65
2023/05/11 21:09:24;;;;;;;6.25;4.13;;;;;;;10.45;88.59;96466.09;10456190;28;20218;-64
2023/05/11 21:14:24;;;;;;;3.05;2.78;;;;;;;10.50;87.54;96462.00;10456322;28;20223;-64
2023/05/11 21:19:25;;;;;;;8.03;3.80;;;;;;;10.48;87.22;96463.97;10456139;28;20222;-63
2023/05/11 21:24:25;;;;;;;10.20;5.63;;;;;;;10.49;86.28;96463.00;10456035;28;20256;-64
2023/05/11 21:29:26;;;;;;;5.23;3.43;;;;;;;10.49;86.99;96455.13;10455825;28;20216;-64
2023/05/11 21:34:26;;;;;;;3.67;3.20;;;;;;;10.55;86.12;96456.31;10455521;28;20198;-64
2023/05/11 21:39:26;;;;;;;4.83;3.40;;;;;;;10.49;86.61;96454.31;10455123;28;20270;-65
2023/05/11 21:44:27;;;;;;;6.53;3.80;;;;;;;10.46;87.18;96465.09;10455139;28;20200;-63
2023/05/11 21:49:27;;;;;;;5.07;3.20;;;;;;;10.48;86.83;96458.72;10455112;28;20257;-64
2023/05/11 21:54:28;;;;;;;5.70;3.57;;;;;;;10.52;86.75;96448.72;10454743;28;20283;-64
2023/05/11 21:59:28;;;;;;;9.07;3.57;;;;;;;10.29;87.16;96459.81;10454506;28;20211;-64
2023/05/11 22:04:29;;;;;;;9.13;3.40;;;;;;;10.35;87.01;96464.44;10453432;28;20219;-64
2023/05/11 22:09:30;;;;;;;4.70;3.37;;;;;;;10.21;88.53;96472.06;10454114;28;20262;-64
2023/05/11 22:14:30;;;;;;;7.17;3.53;;;;;;;10.31;87.91;96470.13;10454320;28;20294;-64
2023/05/11 22:19:31;;;;;;;4.67;3.67;;;;;;;10.33;90.66;96497.81;10453417;28;20952;-64
2023/05/11 22:24:31;;;;;;;4.20;3.80;;;;;;;10.10;90.70;96494.13;10453824;28;20591;-64
2023/05/11 22:29:31;;;;;;;5.60;3.60;;;;;;;10.15;90.26;96484.84;10453276;28;20719;-64
2023/05/11 22:34:32;;;;;;;4.87;3.53;;;;;;;10.10;89.49;96481.84;10453346;28;20690;-64
2023/05/11 22:39:32;;;;;;;3.80;3.13;;;;;;;9.91;90.40;96484.75;10453293;28;20231;-63
2023/05/11 22:44:32;;;;;;;6.70;3.50;;;;;;;10.05;91.76;96496.41;10452819;28;20286;-64
2023/05/11 22:49:33;;;;;;;7.53;3.57;;;;;;;10.00;90.64;96495.09;10453016;28;20266;-64
2023/05/11 22:54:34;;;;;;;10.33;3.27;;;;;;;9.88;91.87;96487.69;10452513;28;20195;-64
2023/05/11 22:59:35;;;;;;;9.20;3.60;;;;;;;9.91;91.32;96485.56;10452597;28;20223;-64
2023/05/11 23:04:35;;;;;;;3.97;3.10;;;;;;;9.93;91.00;96480.16;10452520;28;20724;-64
2023/05/11 23:09:35;;;;;;;4.83;3.27;;;;;;;9.94;90.95;96481.81;10452129;28;20694;-64
2023/05/11 23:14:36;;;;;;;4.10;3.60;;;;;;;9.83;91.14;96482.91;10452571;28;20238;-64
2023/05/11 23:19:36;;;;;;;8.77;3.63;;;;;;;9.83;90.65;96477.66;10459188;28;20199;-64
2023/05/11 23:24:36;;;;;;;7.90;3.00;;;;;;;9.79;90.91;96479.78;10460903;28;20224;-64
2023/05/11 23:29:37;;;;;;;7.57;3.17;;;;;;;9.74;92.09;96481.22;10460281;28;20242;-64